sensor_id;sensor_type;location;lat;lon;timestamp;temperature;humidity
45383;DHT22;42455;51.660;5.824;2024-03-07T00:03:48;8.2;94.5
45383;DHT22;42455;51.660;5.824;2024-03-07T00:08:54;8.2;94.5
45383;DHT22;42455;51.660;5.824;2024-03-07T00:14:01;8.1;94.5
45383;DHT22;42455;51.660;5.824;2024-03-07T00:19:07;8.1;94.5
45383;DHT22;42455;51.660;5.824;2024-03-07T00:24:13;8.1;94.5
45383;DHT22;42455;51.660;5.824;2024-03-07T00:29:19;8.0;94.5
45383;DHT22;42455;51.660;5.824;2024-03-07T00:34:25;8.0;94.5
45383;DHT22;42455;51.660;5.824;2024-03-07T00:39:32;7.9;94.5
45383;DHT22;42455;51.660;5.824;2024-03-07T00:44:38;7.9;94.5
45383;DHT22;42455;51.660;5.824;2024-03-07T00:49:44;7.8;94.0
45383;DHT22;42455;51.660;5.824;2024-03-07T00:54:50;7.7;94.0
45383;DHT22;42455;51.660;5.824;2024-03-07T00:59:57;7.7;94.0
45383;DHT22;42455;51.660;5.824;2024-03-07T01:05:03;7.6;94.5
45383;DHT22;42455;51.660;5.824;2024-03-07T01:10:09;7.5;94.0
45383;DHT22;42455;51.660;5.824;2024-03-07T01:15:15;7.4;94.5
45383;DHT22;42455;51.660;5.824;2024-03-07T01:20:21;7.4;94.5
45383;DHT22;42455;51.660;5.824;2024-03-07T01:25:27;7.3;94.5
45383;DHT22;42455;51.660;5.824;2024-03-07T01:30:34;7.2;94.5
45383;DHT22;42455;51.660;5.824;2024-03-07T01:35:40;7.2;94.5
45383;DHT22;42455;51.660;5.824;2024-03-07T01:40:46;7.1;94.5
45383;DHT22;42455;51.660;5.824;2024-03-07T01:45:57;7.1;94.5
45383;DHT22;42455;51.660;5.824;2024-03-07T01:50:59;7.0;94.5
45383;DHT22;42455;51.660;5.824;2024-03-07T01:56:05;7.0;94.5
45383;DHT22;42455;51.660;5.824;2024-03-07T02:01:11;6.9;94.5
45383;DHT22;42455;51.660;5.824;2024-03-07T02:06:17;6.9;94.5
45383;DHT22;42455;51.660;5.824;2024-03-07T02:11:23;6.8;94.5
45383;DHT22;42455;51.660;5.824;2024-03-07T02:16:30;6.7;94.5
45383;DHT22;42455;51.660;5.824;2024-03-07T02:21:36;6.7;94.5
45383;DHT22;42455;51.660;5.824;2024-03-07T02:26:42;6.6;94.5
45383;DHT22;42455;51.660;5.824;2024-03-07T02:31:48;6.6;94.5
45383;DHT22;42455;51.660;5.824;2024-03-07T02:36:54;6.5;95.0
45383;DHT22;42455;51.660;5.824;2024-03-07T02:42:01;6.5;95.0
45383;DHT22;42455;51.660;5.824;2024-03-07T02:47:07;6.5;95.0
45383;DHT22;42455;51.660;5.824;2024-03-07T02:52:13;6.5;95.0
45383;DHT22;42455;51.660;5.824;2024-03-07T02:57:19;6.4;95.0
45383;DHT22;42455;51.660;5.824;2024-03-07T03:02:26;6.4;95.0
45383;DHT22;42455;51.660;5.824;2024-03-07T03:12:38;6.3;95.0
45383;DHT22;42455;51.660;5.824;2024-03-07T03:17:44;6.3;95.0
45383;DHT22;42455;51.660;5.824;2024-03-07T03:22:50;6.3;95.5
45383;DHT22;42455;51.660;5.824;2024-03-07T03:27:56;6.3;95.5
45383;DHT22;42455;51.660;5.824;2024-03-07T03:33:02;6.2;95.5
45383;DHT22;42455;51.660;5.824;2024-03-07T03:38:08;6.2;95.5
45383;DHT22;42455;51.660;5.824;2024-03-07T03:43:14;6.2;95.5
45383;DHT22;42455;51.660;5.824;2024-03-07T03:48:20;6.2;95.5
45383;DHT22;42455;51.660;5.824;2024-03-07T03:53:26;6.1;95.5
45383;DHT22;42455;51.660;5.824;2024-03-07T03:58:32;6.1;95.5
45383;DHT22;42455;51.660;5.824;2024-03-07T04:03:38;6.1;95.5
45383;DHT22;42455;51.660;5.824;2024-03-07T04:08:44;6.0;95.5
45383;DHT22;42455;51.660;5.824;2024-03-07T04:13:50;6.0;95.5
45383;DHT22;42455;51.660;5.824;2024-03-07T04:18:57;6.0;95.5
45383;DHT22;42455;51.660;5.824;2024-03-07T04:24:03;6.0;95.5
45383;DHT22;42455;51.660;5.824;2024-03-07T04:29:09;5.9;95.5
45383;DHT22;42455;51.660;5.824;2024-03-07T04:34:15;5.9;95.5
45383;DHT22;42455;51.660;5.824;2024-03-07T04:39:21;5.9;95.5
45383;DHT22;42455;51.660;5.824;2024-03-07T04:44:28;5.9;95.5
45383;DHT22;42455;51.660;5.824;2024-03-07T04:49:34;5.8;96.0
45383;DHT22;42455;51.660;5.824;2024-03-07T04:54:40;5.8;96.0
45383;DHT22;42455;51.660;5.824;2024-03-07T04:59:46;5.8;96.0
45383;DHT22;42455;51.660;5.824;2024-03-07T05:04:52;5.8;96.0
45383;DHT22;42455;51.660;5.824;2024-03-07T05:09:59;5.8;96.0
45383;DHT22;42455;51.660;5.824;2024-03-07T05:15:05;5.8;96.0
45383;DHT22;42455;51.660;5.824;2024-03-07T05:20:11;5.8;96.0
45383;DHT22;42455;51.660;5.824;2024-03-07T05:25:18;5.7;95.5
45383;DHT22;42455;51.660;5.824;2024-03-07T05:30:24;5.7;95.5
45383;DHT22;42455;51.660;5.824;2024-03-07T05:35:30;5.7;96.0
45383;DHT22;42455;51.660;5.824;2024-03-07T05:40:36;5.7;96.0
45383;DHT22;42455;51.660;5.824;2024-03-07T05:45:42;5.6;96.0
45383;DHT22;42455;51.660;5.824;2024-03-07T05:50:48;5.6;96.0
45383;DHT22;42455;51.660;5.824;2024-03-07T05:55:55;5.6;96.0
45383;DHT22;42455;51.660;5.824;2024-03-07T06:01:01;5.6;96.0
45383;DHT22;42455;51.660;5.824;2024-03-07T06:06:07;5.6;96.0
45383;DHT22;42455;51.660;5.824;2024-03-07T06:11:13;5.6;95.5
45383;DHT22;42455;51.660;5.824;2024-03-07T06:16:19;5.5;95.5
45383;DHT22;42455;51.660;5.824;2024-03-07T06:21:26;5.5;95.5
45383;DHT22;42455;51.660;5.824;2024-03-07T06:26:33;5.5;95.5
45383;DHT22;42455;51.660;5.824;2024-03-07T06:31:38;5.5;95.5
45383;DHT22;42455;51.660;5.824;2024-03-07T06:36:44;5.4;96.0
45383;DHT22;42455;51.660;5.824;2024-03-07T06:41:50;5.4;96.0
45383;DHT22;42455;51.660;5.824;2024-03-07T06:46:57;5.4;96.0
45383;DHT22;42455;51.660;5.824;2024-03-07T06:52:03;5.4;96.0
45383;DHT22;42455;51.660;5.824;2024-03-07T06:57:09;5.4;96.0
45383;DHT22;42455;51.660;5.824;2024-03-07T07:02:15;5.5;96.5
45383;DHT22;42455;51.660;5.824;2024-03-07T07:07:21;5.6;97.0
45383;DHT22;42455;51.660;5.824;2024-03-07T07:12:28;5.7;97.0
45383;DHT22;42455;51.660;5.824;2024-03-07T07:17:34;5.8;97.0
45383;DHT22;42455;51.660;5.824;2024-03-07T07:22:40;5.9;97.0
45383;DHT22;42455;51.660;5.824;2024-03-07T07:27:49;6.0;97.0
45383;DHT22;42455;51.660;5.824;2024-03-07T07:32:53;6.2;97.0
45383;DHT22;42455;51.660;5.824;2024-03-07T07:37:59;6.3;97.0
45383;DHT22;42455;51.660;5.824;2024-03-07T07:43:05;6.4;96.5
45383;DHT22;42455;51.660;5.824;2024-03-07T07:48:11;6.5;96.5
45383;DHT22;42455;51.660;5.824;2024-03-07T07:53:17;6.6;96.5
45383;DHT22;42455;51.660;5.824;2024-03-07T07:58:24;6.7;96.5
45383;DHT22;42455;51.660;5.824;2024-03-07T08:03:30;6.8;96.0
45383;DHT22;42455;51.660;5.824;2024-03-07T08:08:36;6.9;96.0
45383;DHT22;42455;51.660;5.824;2024-03-07T08:13:42;7.0;96.0
45383;DHT22;42455;51.660;5.824;2024-03-07T08:18:48;7.1;96.0
45383;DHT22;42455;51.660;5.824;2024-03-07T08:23:55;7.1;96.0
45383;DHT22;42455;51.660;5.824;2024-03-07T08:29:01;7.3;95.5
45383;DHT22;42455;51.660;5.824;2024-03-07T08:34:07;7.3;95.5
45383;DHT22;42455;51.660;5.824;2024-03-07T08:39:13;7.4;95.0
45383;DHT22;42455;51.660;5.824;2024-03-07T08:44:19;7.5;95.0
45383;DHT22;42455;51.660;5.824;2024-03-07T08:49:26;7.7;95.0
45383;DHT22;42455;51.660;5.824;2024-03-07T08:54:32;7.8;95.0
45383;DHT22;42455;51.660;5.824;2024-03-07T08:59:38;7.9;95.0
45383;DHT22;42455;51.660;5.824;2024-03-07T09:04:44;8.1;94.5
45383;DHT22;42455;51.660;5.824;2024-03-07T09:09:50;8.2;94.5
45383;DHT22;42455;51.660;5.824;2024-03-07T09:14:57;8.4;94.5
45383;DHT22;42455;51.660;5.824;2024-03-07T09:20:03;8.5;94.0
45383;DHT22;42455;51.660;5.824;2024-03-07T09:25:08;8.7;93.5
45383;DHT22;42455;51.660;5.824;2024-03-07T09:30:14;8.8;93.5
45383;DHT22;42455;51.660;5.824;2024-03-07T09:35:20;9.0;93.5
45383;DHT22;42455;51.660;5.824;2024-03-07T09:40:27;9.2;93.0
45383;DHT22;42455;51.660;5.824;2024-03-07T09:45:34;9.4;93.0
45383;DHT22;42455;51.660;5.824;2024-03-07T09:50:40;9.6;92.5
45383;DHT22;42455;51.660;5.824;2024-03-07T09:55:45;9.7;92.0
45383;DHT22;42455;51.660;5.824;2024-03-07T10:00:53;9.8;92.0
45383;DHT22;42455;51.660;5.824;2024-03-07T10:05:58;10.0;92.0
45383;DHT22;42455;51.660;5.824;2024-03-07T10:11:04;10.2;91.5
45383;DHT22;42455;51.660;5.824;2024-03-07T10:16:10;10.3;91.0
45383;DHT22;42455;51.660;5.824;2024-03-07T10:21:18;10.5;90.5
45383;DHT22;42455;51.660;5.824;2024-03-07T10:31:29;10.7;90.0
45383;DHT22;42455;51.660;5.824;2024-03-07T10:36:35;10.9;89.5
45383;DHT22;42455;51.660;5.824;2024-03-07T10:41:44;11.1;89.0
45383;DHT22;42455;51.660;5.824;2024-03-07T10:46:51;11.2;88.0
45383;DHT22;42455;51.660;5.824;2024-03-07T10:52:49;11.4;87.5
45383;DHT22;42455;51.660;5.824;2024-03-07T11:00:00;11.5;87.0
45383;DHT22;42455;51.660;5.824;2024-03-07T11:02:29;11.6;86.5
45383;DHT22;42455;51.660;5.824;2024-03-07T11:07:12;11.7;86.0
45383;DHT22;42455;51.660;5.824;2024-03-07T11:12:19;11.8;85.0
45383;DHT22;42455;51.660;5.824;2024-03-07T11:17:25;11.7;84.5
45383;DHT22;42455;51.660;5.824;2024-03-07T11:22:31;11.7;84.5
45383;DHT22;42455;51.660;5.824;2024-03-07T11:27:37;11.7;84.5
45383;DHT22;42455;51.660;5.824;2024-03-07T11:32:43;11.7;84.5
45383;DHT22;42455;51.660;5.824;2024-03-07T11:37:50;11.8;84.0
45383;DHT22;42455;51.660;5.824;2024-03-07T11:42:56;11.8;83.5
45383;DHT22;42455;51.660;5.824;2024-03-07T11:48:02;11.8;83.5
45383;DHT22;42455;51.660;5.824;2024-03-07T11:53:09;11.8;83.5
45383;DHT22;42455;51.660;5.824;2024-03-07T11:58:15;11.9;83.5
45383;DHT22;42455;51.660;5.824;2024-03-07T12:03:21;11.9;83.0
45383;DHT22;42455;51.660;5.824;2024-03-07T12:08:27;12.1;83.5
45383;DHT22;42455;51.660;5.824;2024-03-07T12:13:33;12.2;83.0
45383;DHT22;42455;51.660;5.824;2024-03-07T12:18:39;12.3;82.5
45383;DHT22;42455;51.660;5.824;2024-03-07T12:23:45;12.4;82.5
45383;DHT22;42455;51.660;5.824;2024-03-07T12:28:52;12.5;81.5
45383;DHT22;42455;51.660;5.824;2024-03-07T12:33:58;12.5;81.0
45383;DHT22;42455;51.660;5.824;2024-03-07T12:39:04;12.5;80.5
45383;DHT22;42455;51.660;5.824;2024-03-07T12:44:10;12.5;80.0
45383;DHT22;42455;51.660;5.824;2024-03-07T12:49:16;12.5;80.0
45383;DHT22;42455;51.660;5.824;2024-03-07T12:54:23;12.5;80.5
45383;DHT22;42455;51.660;5.824;2024-03-07T12:59:29;12.6;81.0
45383;DHT22;42455;51.660;5.824;2024-03-07T13:04:35;12.7;81.0
45383;DHT22;42455;51.660;5.824;2024-03-07T13:09:41;12.7;80.5
45383;DHT22;42455;51.660;5.824;2024-03-07T13:14:47;12.7;80.5
45383;DHT22;42455;51.660;5.824;2024-03-07T13:19:54;12.7;80.5
45383;DHT22;42455;51.660;5.824;2024-03-07T13:25:01;12.6;80.0
45383;DHT22;42455;51.660;5.824;2024-03-07T13:30:07;12.5;80.5
45383;DHT22;42455;51.660;5.824;2024-03-07T13:35:12;12.4;81.0
45383;DHT22;42455;51.660;5.824;2024-03-07T13:40:19;12.4;81.5
45383;DHT22;42455;51.660;5.824;2024-03-07T13:45:26;12.5;81.5
45383;DHT22;42455;51.660;5.824;2024-03-07T13:50:33;12.5;81.0
45383;DHT22;42455;51.660;5.824;2024-03-07T13:56:02;12.4;81.0
45383;DHT22;42455;51.660;5.824;2024-03-07T14:06:30;12.2;80.5
45383;DHT22;42455;51.660;5.824;2024-03-07T14:22:40;12.1;81.0
45383;DHT22;42455;51.660;5.824;2024-03-07T14:30:59;11.9;81.0
45383;DHT22;42455;51.660;5.824;2024-03-07T14:31:08;11.8;81.5
45383;DHT22;42455;51.660;5.824;2024-03-07T14:31:18;11.8;82.5
45383;DHT22;42455;51.660;5.824;2024-03-07T14:31:30;11.8;83.0
45383;DHT22;42455;51.660;5.824;2024-03-07T14:31:48;11.9;82.5
45383;DHT22;42455;51.660;5.824;2024-03-07T14:36:43;12.0;82.5
45383;DHT22;42455;51.660;5.824;2024-03-07T14:41:54;12.0;83.0
45383;DHT22;42455;51.660;5.824;2024-03-07T14:46:39;12.0;82.5
45383;DHT22;42455;51.660;5.824;2024-03-07T14:51:47;12.1;82.5
45383;DHT22;42455;51.660;5.824;2024-03-07T14:56:51;12.1;83.0
45383;DHT22;42455;51.660;5.824;2024-03-07T15:01:57;12.1;82.0
45383;DHT22;42455;51.660;5.824;2024-03-07T15:07:03;12.1;82.5
45383;DHT22;42455;51.660;5.824;2024-03-07T15:12:09;12.1;83.0
45383;DHT22;42455;51.660;5.824;2024-03-07T15:17:16;12.2;82.5
45383;DHT22;42455;51.660;5.824;2024-03-07T15:22:22;12.3;82.5
45383;DHT22;42455;51.660;5.824;2024-03-07T15:27:28;12.4;83.0
45383;DHT22;42455;51.660;5.824;2024-03-07T15:32:34;12.4;82.5
45383;DHT22;42455;51.660;5.824;2024-03-07T15:37:40;12.4;82.5
45383;DHT22;42455;51.660;5.824;2024-03-07T15:42:48;12.4;82.5
45383;DHT22;42455;51.660;5.824;2024-03-07T15:47:54;12.4;82.0
45383;DHT22;42455;51.660;5.824;2024-03-07T15:58:05;12.3;82.0
45383;DHT22;42455;51.660;5.824;2024-03-07T16:03:12;12.3;82.0
45383;DHT22;42455;51.660;5.824;2024-03-07T16:08:18;12.2;82.0
45383;DHT22;42455;51.660;5.824;2024-03-07T16:13:24;12.2;81.5
45383;DHT22;42455;51.660;5.824;2024-03-07T16:18:30;12.1;81.5
45383;DHT22;42455;51.660;5.824;2024-03-07T16:23:36;12.0;81.5
45383;DHT22;42455;51.660;5.824;2024-03-07T16:28:42;12.0;81.5
45383;DHT22;42455;51.660;5.824;2024-03-07T16:33:49;11.9;81.5
45383;DHT22;42455;51.660;5.824;2024-03-07T16:38:55;11.9;81.0
45383;DHT22;42455;51.660;5.824;2024-03-07T16:44:01;11.8;81.0
45383;DHT22;42455;51.660;5.824;2024-03-07T16:49:07;11.8;81.5
45383;DHT22;42455;51.660;5.824;2024-03-07T16:54:14;11.7;81.0
45383;DHT22;42455;51.660;5.824;2024-03-07T16:59:20;11.7;81.0
45383;DHT22;42455;51.660;5.824;2024-03-07T17:04:26;11.6;81.0
45383;DHT22;42455;51.660;5.824;2024-03-07T17:09:32;11.4;80.5
45383;DHT22;42455;51.660;5.824;2024-03-07T17:14:38;11.3;80.5
45383;DHT22;42455;51.660;5.824;2024-03-07T17:19:45;11.2;81.0
45383;DHT22;42455;51.660;5.824;2024-03-07T17:24:51;11.1;81.0
45383;DHT22;42455;51.660;5.824;2024-03-07T17:29:57;10.9;81.0
45383;DHT22;42455;51.660;5.824;2024-03-07T17:35:03;10.8;81.0
45383;DHT22;42455;51.660;5.824;2024-03-07T17:40:10;10.7;81.0
45383;DHT22;42455;51.660;5.824;2024-03-07T17:45:16;10.5;81.5
45383;DHT22;42455;51.660;5.824;2024-03-07T17:50:23;10.4;81.5
45383;DHT22;42455;51.660;5.824;2024-03-07T17:55:29;10.3;82.0
45383;DHT22;42455;51.660;5.824;2024-03-07T18:00:34;10.2;82.5
45383;DHT22;42455;51.660;5.824;2024-03-07T18:05:41;10.1;83.0
45383;DHT22;42455;51.660;5.824;2024-03-07T18:10:47;10.0;83.0
45383;DHT22;42455;51.660;5.824;2024-03-07T18:15:53;9.9;83.5
45383;DHT22;42455;51.660;5.824;2024-03-07T18:20:59;9.8;83.5
45383;DHT22;42455;51.660;5.824;2024-03-07T18:26:05;9.7;84.0
45383;DHT22;42455;51.660;5.824;2024-03-07T18:31:13;9.7;84.5
45383;DHT22;42455;51.660;5.824;2024-03-07T18:36:18;9.6;84.5
45383;DHT22;42455;51.660;5.824;2024-03-07T18:41:24;9.5;84.5
45383;DHT22;42455;51.660;5.824;2024-03-07T18:46:30;9.4;85.0
45383;DHT22;42455;51.660;5.824;2024-03-07T18:51:36;9.4;85.0
45383;DHT22;42455;51.660;5.824;2024-03-07T18:56:42;9.3;85.0
45383;DHT22;42455;51.660;5.824;2024-03-07T19:01:49;9.2;85.5
45383;DHT22;42455;51.660;5.824;2024-03-07T19:06:55;9.2;85.5
45383;DHT22;42455;51.660;5.824;2024-03-07T19:12:01;9.1;85.5
45383;DHT22;42455;51.660;5.824;2024-03-07T19:17:07;9.0;86.0
45383;DHT22;42455;51.660;5.824;2024-03-07T19:22:13;8.9;86.0
45383;DHT22;42455;51.660;5.824;2024-03-07T19:27:20;8.8;86.0
45383;DHT22;42455;51.660;5.824;2024-03-07T19:32:26;8.8;86.5
45383;DHT22;42455;51.660;5.824;2024-03-07T19:37:32;8.7;86.5
45383;DHT22;42455;51.660;5.824;2024-03-07T19:42:39;8.6;87.0
45383;DHT22;42455;51.660;5.824;2024-03-07T19:47:45;8.5;87.0
45383;DHT22;42455;51.660;5.824;2024-03-07T19:52:51;8.5;87.5
45383;DHT22;42455;51.660;5.824;2024-03-07T19:57:57;8.4;87.5
45383;DHT22;42455;51.660;5.824;2024-03-07T20:03:03;8.4;88.0
45383;DHT22;42455;51.660;5.824;2024-03-07T20:08:09;8.4;88.0
45383;DHT22;42455;51.660;5.824;2024-03-07T20:13:15;8.3;88.5
45383;DHT22;42455;51.660;5.824;2024-03-07T20:18:22;8.3;88.5
45383;DHT22;42455;51.660;5.824;2024-03-07T20:23:28;8.3;88.5
45383;DHT22;42455;51.660;5.824;2024-03-07T20:28:33;8.3;88.5
45383;DHT22;42455;51.660;5.824;2024-03-07T20:33:39;8.3;88.5
45383;DHT22;42455;51.660;5.824;2024-03-07T20:38:45;8.2;88.5
45383;DHT22;42455;51.660;5.824;2024-03-07T20:43:52;8.2;88.5
45383;DHT22;42455;51.660;5.824;2024-03-07T20:48:58;8.1;88.0
45383;DHT22;42455;51.660;5.824;2024-03-07T20:54:04;8.0;88.5
45383;DHT22;42455;51.660;5.824;2024-03-07T20:59:09;7.9;88.5
45383;DHT22;42455;51.660;5.824;2024-03-07T21:04:16;7.8;88.5
45383;DHT22;42455;51.660;5.824;2024-03-07T21:09:22;7.7;89.0
45383;DHT22;42455;51.660;5.824;2024-03-07T21:14:28;7.7;89.0
45383;DHT22;42455;51.660;5.824;2024-03-07T21:19:35;7.6;89.0
45383;DHT22;42455;51.660;5.824;2024-03-07T21:24:40;7.5;89.5
45383;DHT22;42455;51.660;5.824;2024-03-07T21:29:47;7.5;89.5
45383;DHT22;42455;51.660;5.824;2024-03-07T21:34:53;7.4;89.5
45383;DHT22;42455;51.660;5.824;2024-03-07T21:39:59;7.4;89.5
45383;DHT22;42455;51.660;5.824;2024-03-07T21:45:05;7.4;89.5
45383;DHT22;42455;51.660;5.824;2024-03-07T21:50:13;7.3;89.5
45383;DHT22;42455;51.660;5.824;2024-03-07T21:55:18;7.3;89.5
45383;DHT22;42455;51.660;5.824;2024-03-07T22:00:24;7.2;89.0
45383;DHT22;42455;51.660;5.824;2024-03-07T22:05:30;7.2;89.0
45383;DHT22;42455;51.660;5.824;2024-03-07T22:10:37;7.1;89.0
45383;DHT22;42455;51.660;5.824;2024-03-07T22:15:43;7.1;89.0
45383;DHT22;42455;51.660;5.824;2024-03-07T22:20:49;7.0;89.0
45383;DHT22;42455;51.660;5.824;2024-03-07T22:25:55;7.0;89.0
45383;DHT22;42455;51.660;5.824;2024-03-07T22:31:01;6.9;89.5
45383;DHT22;42455;51.660;5.824;2024-03-07T22:36:07;6.9;89.0
45383;DHT22;42455;51.660;5.824;2024-03-07T22:41:14;6.9;89.0
45383;DHT22;42455;51.660;5.824;2024-03-07T22:46:20;6.8;89.0
45383;DHT22;42455;51.660;5.824;2024-03-07T22:51:26;6.8;89.0
45383;DHT22;42455;51.660;5.824;2024-03-07T22:56:32;6.7;89.0
45383;DHT22;42455;51.660;5.824;2024-03-07T23:01:38;6.6;89.0
45383;DHT22;42455;51.660;5.824;2024-03-07T23:06:45;6.6;89.0
45383;DHT22;42455;51.660;5.824;2024-03-07T23:11:51;6.5;89.0
45383;DHT22;42455;51.660;5.824;2024-03-07T23:16:57;6.5;88.5
45383;DHT22;42455;51.660;5.824;2024-03-07T23:22:03;6.5;88.5
45383;DHT22;42455;51.660;5.824;2024-03-07T23:27:09;6.4;88.5
45383;DHT22;42455;51.660;5.824;2024-03-07T23:32:16;6.4;88.5
45383;DHT22;42455;51.660;5.824;2024-03-07T23:37:22;6.3;88.5
45383;DHT22;42455;51.660;5.824;2024-03-07T23:42:28;6.3;88.5
45383;DHT22;42455;51.660;5.824;2024-03-07T23:47:34;6.2;88.5
45383;DHT22;42455;51.660;5.824;2024-03-07T23:52:41;6.2;88.5
45383;DHT22;42455;51.660;5.824;2024-03-07T23:57:47;6.1;88.5
